Time;durP1;ratioP1;P1;durP2;ratioP2;P2;SDS_P1;SDS_P2;PMS_P1;PMS_P2;Temp;Humidity;BMP_temperature;BMP_pressure;BME280_temperature;BME280_humidity;BME280_pressure;Samples;Min_cycle;Max_cycle;Signal;HPM_P1;HPM_P2
2024/02/16 00:00:11;;;;;;;4.70;2.30;;;12.00;99.90;;;;;;5039461;28;20445;-64
2024/02/16 00:02:37;;;;;;;7.07;3.03;;;12.00;99.90;;;;;;5034937;28;20569;-66
2024/02/16 00:05:06;;;;;;;3.83;2.50;;;12.00;99.90;;;;;;5037002;28;20455;-65
2024/02/16 00:07:33;;;;;;;3.23;2.30;;;12.00;99.90;;;;;;5036945;28;20447;-65
2024/02/16 00:09:59;;;;;;;6.90;2.90;;;12.00;99.90;;;;;;5039642;28;20465;-65
2024/02/16 00:12:26;;;;;;;6.00;2.60;;;12.00;99.90;;;;;;5038885;28;20478;-65
2024/02/16 00:14:54;;;;;;;3.20;2.67;;;12.00;99.90;;;;;;5039188;28;20449;-66
2024/02/16 00:17:22;;;;;;;6.80;2.43;;;12.00;99.90;;;;;;5034942;28;20573;-65
2024/02/16 00:19:48;;;;;;;3.87;2.27;;;11.90;99.90;;;;;;5033548;28;20824;-64
2024/02/16 00:22:15;;;;;;;3.90;2.50;;;12.00;99.90;;;;;;5033112;28;20470;-65
2024/02/16 00:24:42;;;;;;;3.90;2.90;;;11.90;99.90;;;;;;5033511;28;20445;-65
2024/02/16 00:27:09;;;;;;;5.17;2.30;;;11.90;99.90;;;;;;5033924;28;20444;-64
2024/02/16 00:29:35;;;;;;;4.63;2.40;;;11.90;99.90;;;;;;5037376;28;20437;-65
2024/02/16 00:32:04;;;;;;;4.00;2.40;;;11.80;99.90;;;;;;5037507;28;21010;-66
2024/02/16 00:34:30;;;;;;;6.33;2.63;;;11.80;99.90;;;;;;5037795;28;20939;-65
2024/02/16 00:36:57;;;;;;;6.03;2.67;;;11.80;99.90;;;;;;5038109;28;20452;-65
2024/02/16 00:39:24;;;;;;;5.73;2.83;;;11.80;99.90;;;;;;5037869;28;20552;-65
2024/02/16 00:41:51;;;;;;;3.80;2.50;;;11.80;99.90;;;;;;5037217;28;20469;-65
2024/02/16 00:44:18;;;;;;;3.37;2.40;;;11.70;99.90;;;;;;5037065;28;20456;-66
2024/02/16 00:46:45;;;;;;;2.90;2.50;;;11.70;99.90;;;;;;5037028;28;20455;-66
2024/02/16 00:49:14;;;;;;;3.37;2.43;;;11.70;99.90;;;;;;5036625;28;20462;-65
2024/02/16 00:51:42;;;;;;;3.50;2.70;;;11.60;99.90;;;;;;5036825;28;20479;-66
2024/02/16 00:54:08;;;;;;;3.20;2.20;;;11.60;99.90;;;;;;5036846;28;20451;-65
2024/02/16 00:56:36;;;;;;;3.00;2.30;;;11.60;99.90;;;;;;5036672;28;20448;-65
2024/02/16 00:59:03;;;;;;;3.50;2.67;;;11.60;99.90;;;;;;5036740;28;20487;-66
2024/02/16 01:01:29;;;;;;;6.70;2.53;;;11.60;99.90;;;;;;5036842;28;20479;-65
2024/02/16 01:03:56;;;;;;;5.70;2.40;;;11.50;99.90;;;;;;5036851;28;20428;-65
2024/02/16 01:06:24;;;;;;;2.93;2.20;;;11.50;99.90;;;;;;5036296;28;20450;-66
2024/02/16 01:08:51;;;;;;;3.63;2.47;;;11.50;99.90;;;;;;5036666;28;20443;-65
2024/02/16 01:11:19;;;;;;;3.70;2.73;;;11.40;99.90;;;;;;5036452;28;20468;-65
2024/02/16 01:13:46;;;;;;;6.03;2.67;;;11.40;99.90;;;;;;5036658;28;20451;-65
2024/02/16 01:16:13;;;;;;;3.07;2.77;;;11.30;99.90;;;;;;5036145;28;20458;-65
2024/02/16 01:18:41;;;;;;;2.67;2.43;;;11.30;99.90;;;;;;5036379;28;20487;-66
2024/02/16 01:21:08;;;;;;;2.67;2.00;;;11.30;99.90;;;;;;5036625;28;20458;-65
2024/02/16 01:23:36;;;;;;;3.07;2.77;;;11.20;99.90;;;;;;5036715;28;20445;-65
2024/02/16 01:26:03;;;;;;;2.83;2.03;;;11.20;99.90;;;;;;5037546;28;20470;-64
2024/02/16 01:28:30;;;;;;;3.77;2.60;;;11.20;99.90;;;;;;5037420;28;20440;-64
2024/02/16 01:30:57;;;;;;;3.90;2.60;;;11.20;99.90;;;;;;5037904;28;20558;-64
2024/02/16 01:33:24;;;;;;;4.03;2.27;;;11.20;99.90;;;;;;5038315;28;20509;-65
2024/02/16 01:35:51;;;;;;;4.23;2.53;;;11.20;99.90;;;;;;5038259;28;20458;-63
2024/02/16 01:38:17;;;;;;;2.57;2.00;;;11.20;99.90;;;;;;5037490;28;20849;-64
2024/02/16 01:40:45;;;;;;;3.73;2.70;;;11.10;99.90;;;;;;5036638;28;20446;-64
2024/02/16 01:43:12;;;;;;;3.30;2.30;;;11.10;99.90;;;;;;5037428;28;20482;-63
2024/02/16 01:45:39;;;;;;;4.40;2.77;;;11.10;99.90;;;;;;5037621;28;20440;-65
2024/02/16 01:48:06;;;;;;;2.90;2.37;;;11.00;99.90;;;;;;5037816;28;20447;-65
2024/02/16 01:50:33;;;;;;;3.57;2.27;;;11.00;99.90;;;;;;5037796;28;20820;-66
2024/02/16 01:53:00;;;;;;;6.40;3.17;;;11.00;99.90;;;;;;5036942;28;20558;-65
2024/02/16 01:55:27;;;;;;;4.57;2.70;;;11.00;99.90;;;;;;5037198;28;20439;-65
2024/02/16 01:57:56;;;;;;;3.90;2.80;;;10.90;99.90;;;;;;5036846;28;20484;-64
2024/02/16 02:00:23;;;;;;;4.17;2.73;;;10.90;99.90;;;;;;5037372;28;20449;-65
2024/02/16 02:02:50;;;;;;;4.13;2.43;;;10.90;99.90;;;;;;5036510;28;20490;-64
2024/02/16 02:05:17;;;;;;;4.03;2.50;;;10.90;99.90;;;;;;5039817;28;20910;-65
2024/02/16 02:07:43;;;;;;;7.97;2.60;;;10.90;99.90;;;;;;5040039;28;20455;-65
2024/02/16 02:10:12;;;;;;;4.93;1.90;;;10.90;99.90;;;;;;5039537;28;20498;-64
2024/02/16 02:12:39;;;;;;;3.53;2.27;;;10.80;99.90;;;;;;5038693;28;20483;-64
2024/02/16 02:15:08;;;;;;;3.30;2.40;;;10.80;99.90;;;;;;5039950;28;20821;-64
2024/02/16 02:17:35;;;;;;;3.00;2.27;;;10.80;99.90;;;;;;5037003;28;20446;-65
2024/02/16 02:20:03;;;;;;;2.57;2.37;;;10.80;99.90;;;;;;5036332;28;20443;-65
2024/02/16 02:22:31;;;;;;;2.73;2.17;;;10.80;99.90;;;;;;5035879;28;20473;-64
2024/02/16 02:24:58;;;;;;;4.57;2.43;;;10.80;99.90;;;;;;5036688;28;20470;-64
2024/02/16 02:27:25;;;;;;;3.83;2.50;;;10.80;99.90;;;;;;5037539;28;20443;-64
2024/02/16 02:29:51;;;;;;;2.70;2.20;;;10.80;99.90;;;;;;5036119;28;20448;-65
2024/02/16 02:32:19;;;;;;;4.67;2.40;;;10.80;99.90;;;;;;5036768;28;20473;-65
2024/02/16 02:34:45;;;;;;;6.57;2.57;;;10.80;99.90;;;;;;5035950;28;20479;-64
2024/02/16 02:37:12;;;;;;;4.70;2.37;;;10.80;99.90;;;;;;5036820;28;20451;-64
2024/02/16 02:39:40;;;;;;;2.60;2.10;;;10.80;99.90;;;;;;5035893;28;21001;-65
2024/02/16 02:42:08;;;;;;;3.67;2.37;;;10.80;99.90;;;;;;5035393;28;20563;-65
2024/02/16 02:44:35;;;;;;;3.37;2.10;;;10.80;99.90;;;;;;5035324;28;20447;-65
2024/02/16 02:47:01;;;;;;;2.63;2.43;;;10.80;99.90;;;;;;5035378;28;20447;-64
2024/02/16 02:49:28;;;;;;;5.00;2.90;;;10.80;99.90;;;;;;5035268;28;20436;-64
2024/02/16 02:51:55;;;;;;;3.80;2.53;;;10.80;99.90;;;;;;5033619;28;20471;-64
2024/02/16 02:54:22;;;;;;;3.40;1.97;;;10.90;99.90;;;;;;5034101;28;20941;-64
2024/02/16 02:56:50;;;;;;;5.00;2.33;;;10.90;99.90;;;;;;5034535;28;20443;-64
2024/02/16 02:59:16;;;;;;;3.73;1.80;;;10.90;99.90;;;;;;5034308;28;20865;-64
2024/02/16 03:01:43;;;;;;;3.70;2.60;;;10.90;99.90;;;;;;5035233;28;20471;-64
2024/02/16 03:04:10;;;;;;;2.53;2.17;;;10.90;99.90;;;;;;5034597;28;20434;-64
2024/02/16 03:06:37;;;;;;;4.17;2.33;;;10.90;99.90;;;;;;5034495;28;20444;-64
2024/02/16 03:09:04;;;;;;;4.57;2.20;;;10.90;99.90;;;;;;5034020;28;20451;-64
2024/02/16 03:11:30;;;;;;;2.50;2.30;;;10.90;99.90;;;;;;5034250;28;20460;-64
2024/02/16 03:13:58;;;;;;;3.73;2.27;;;11.00;99.90;;;;;;5034167;28;20804;-64
2024/02/16 03:16:25;;;;;;;3.80;2.13;;;11.00;99.90;;;;;;5034313;28;20442;-64
2024/02/16 03:18:52;;;;;;;2.53;2.10;;;11.00;99.90;;;;;;5034060;28;20483;-64
2024/02/16 03:21:18;;;;;;;3.07;2.37;;;11.00;99.90;;;;;;5033592;28;21001;-64
2024/02/16 03:23:45;;;;;;;5.80;2.20;;;11.00;99.90;;;;;;5034088;28;20445;-64
2024/02/16 03:26:16;;;;;;;4.20;2.10;;;11.10;99.90;;;;;;5034322;28;20471;-64
2024/02/16 03:28:46;;;;;;;3.90;2.20;;;11.10;99.90;;;;;;5034481;28;20490;-64
2024/02/16 03:31:18;;;;;;;3.20;2.63;;;11.10;99.90;;;;;;5034583;28;20467;-64
2024/02/16 03:33:44;;;;;;;4.00;2.40;;;11.10;99.90;;;;;;5034757;28;20428;-65
2024/02/16 03:36:12;;;;;;;3.07;2.17;;;11.10;99.90;;;;;;5034467;28;20439;-65
2024/02/16 03:38:41;;;;;;;4.60;2.30;;;11.10;99.90;;;;;;5034249;28;20537;-65
2024/02/16 03:41:08;;;;;;;5.70;2.63;;;11.10;99.90;;;;;;5034437;28;20562;-65
2024/02/16 03:43:35;;;;;;;3.70;2.97;;;11.10;99.90;;;;;;5034529;28;20446;-65
2024/02/16 03:46:03;;;;;;;3.40;2.60;;;11.10;99.90;;;;;;5034666;28;20452;-64
2024/02/16 03:48:31;;;;;;;5.20;2.17;;;11.10;99.90;;;;;;5035907;28;20440;-64
2024/02/16 03:50:58;;;;;;;6.00;2.63;;;11.10;99.90;;;;;;5038828;28;20452;-65
2024/02/16 03:53:24;;;;;;;5.23;2.47;;;11.10;99.90;;;;;;5039343;28;20816;-65
2024/02/16 03:55:51;;;;;;;3.13;1.97;;;11.10;99.90;;;;;;5036632;28;20463;-65
2024/02/16 03:58:18;;;;;;;2.67;1.70;;;11.10;99.90;;;;;;5038809;28;20448;-65
2024/02/16 04:00:45;;;;;;;2.90;1.83;;;11.10;99.90;;;;;;5037497;28;20452;-65
2024/02/16 04:03:11;;;;;;;3.73;2.23;;;11.10;99.90;;;;;;5038150;28;20476;-65
2024/02/16 04:05:40;;;;;;;4.30;2.47;;;11.10;99.90;;;;;;5037156;28;20440;-65
2024/02/16 04:08:07;;;;;;;3.70;2.20;;;11.00;99.90;;;;;;5036869;28;20454;-65
2024/02/16 04:13:11;;;;;;;6.30;2.30;;;11.00;99.90;;;;;;5094860;27;20633;-65
2024/02/16 04:15:38;;;;;;;4.00;2.03;;;11.00;99.90;;;;;;5096719;28;20973;-66
2024/02/16 04:18:05;;;;;;;3.67;2.20;;;11.00;99.90;;;;;;5098286;28;20441;-65
2024/02/16 04:20:33;;;;;;;3.87;2.10;;;11.00;99.90;;;;;;5097156;28;20479;-65
2024/02/16 04:23:00;;;;;;;2.70;2.30;;;11.00;99.90;;;;;;5095863;28;20470;-65
2024/02/16 04:25:26;;;;;;;4.50;2.27;;;11.00;99.90;;;;;;5114113;22;20451;-67
2024/02/16 04:27:54;;;;;;;3.00;2.00;;;11.00;99.90;;;;;;5050888;28;20431;-68
2024/02/16 04:30:22;;;;;;;2.47;2.13;;;11.10;99.90;;;;;;5050726;28;20447;-68
2024/02/16 04:32:49;;;;;;;3.97;2.10;;;11.10;99.90;;;;;;5050329;28;20482;-67
2024/02/16 04:35:16;;;;;;;2.27;2.07;;;11.10;99.90;;;;;;5050071;28;20447;-68
2024/02/16 04:37:43;;;;;;;4.53;2.10;;;11.10;99.90;;;;;;5049913;28;20931;-68
2024/02/16 04:40:11;;;;;;;3.20;2.00;;;11.10;99.90;;;;;;5050290;28;20448;-67
2024/02/16 04:42:40;;;;;;;3.53;1.87;;;11.20;99.90;;;;;;5050208;28;20446;-66
2024/02/16 04:45:07;;;;;;;1.80;1.60;;;11.20;99.90;;;;;;5050022;28;20445;-67
2024/02/16 04:47:35;;;;;;;4.00;2.00;;;11.20;99.90;;;;;;5049959;28;20547;-68
2024/02/16 04:50:02;;;;;;;5.10;2.50;;;11.30;99.90;;;;;;5050083;28;20444;-68
2024/02/16 04:52:29;;;;;;;3.90;2.50;;;11.30;99.90;;;;;;5049854;28;20574;-68
2024/02/16 04:54:56;;;;;;;4.00;2.20;;;11.30;99.90;;;;;;5049630;28;20937;-67
2024/02/16 04:57:23;;;;;;;2.80;2.20;;;11.30;99.90;;;;;;5049445;28;20459;-65
2024/02/16 04:59:49;;;;;;;5.03;2.10;;;11.30;99.90;;;;;;5049604;28;20438;-68
2024/02/16 05:02:16;;;;;;;3.93;1.70;;;11.30;99.90;;;;;;5077249;22;20496;-65
2024/02/16 05:04:44;;;;;;;3.70;1.67;;;11.30;99.90;;;;;;5069999;28;20437;-64
2024/02/16 05:07:11;;;;;;;2.73;2.10;;;11.30;99.90;;;;;;5070303;28;20442;-65
2024/02/16 05:09:39;;;;;;;2.70;1.90;;;11.30;99.90;;;;;;5070164;28;20438;-65
2024/02/16 05:12:08;;;;;;;4.53;1.90;;;11.30;99.90;;;;;;5069942;28;20521;-65
2024/02/16 05:14:35;;;;;;;2.83;2.20;;;11.30;99.90;;;;;;5069812;28;21016;-63
2024/02/16 05:17:02;;;;;;;2.60;1.70;;;11.30;99.90;;;;;;5070099;28;20454;-64
2024/02/16 05:19:28;;;;;;;4.40;1.90;;;11.20;99.90;;;;;;5069657;28;20449;-64
2024/02/16 05:21:56;;;;;;;2.53;1.70;;;11.30;99.90;;;;;;5069239;28;20458;-65
2024/02/16 05:24:23;;;;;;;2.33;2.13;;;11.30;99.90;;;;;;5058640;28;20453;-65
2024/02/16 05:26:51;;;;;;;3.23;2.00;;;11.30;99.90;;;;;;5057296;28;20458;-64
2024/02/16 05:29:17;;;;;;;3.73;1.80;;;11.30;99.90;;;;;;5056668;28;20452;-68
2024/02/16 05:31:44;;;;;;;1.87;1.70;;;11.30;99.90;;;;;;5056415;28;20486;-65
2024/02/16 05:34:11;;;;;;;2.00;1.80;;;11.30;99.90;;;;;;5055682;28;20448;-65
2024/02/16 05:36:38;;;;;;;2.60;2.00;;;11.40;99.90;;;;;;5056328;28;20447;-64
2024/02/16 05:39:19;;;;;;;2.30;1.73;;;11.40;99.90;;;;;;5056297;28;20443;-65
2024/02/16 05:41:46;;;;;;;4.77;2.17;;;11.40;99.90;;;;;;5055906;28;20554;-66
2024/02/16 05:44:13;;;;;;;5.87;1.90;;;11.40;99.90;;;;;;5056563;28;20445;-64
2024/02/16 05:46:40;;;;;;;3.67;2.53;;;11.40;99.90;;;;;;5056229;28;20532;-65
2024/02/16 05:49:06;;;;;;;4.53;1.87;;;11.40;99.90;;;;;;5055949;28;20437;-65
2024/02/16 05:51:36;;;;;;;3.63;2.03;;;11.40;99.90;;;;;;5055795;28;20486;-65
2024/02/16 05:54:03;;;;;;;3.63;1.63;;;11.40;99.90;;;;;;5055572;28;20445;-65
2024/02/16 05:56:33;;;;;;;3.20;1.80;;;11.40;99.90;;;;;;5055548;28;20439;-64
2024/02/16 05:59:00;;;;;;;2.80;1.97;;;11.40;99.90;;;;;;5055579;28;20462;-64
2024/02/16 06:01:27;;;;;;;2.50;1.90;;;11.30;99.90;;;;;;5055107;28;20827;-64
2024/02/16 06:03:54;;;;;;;2.67;2.10;;;11.30;99.90;;;;;;5055391;28;20439;-65
2024/02/16 06:06:21;;;;;;;3.07;2.30;;;11.30;99.90;;;;;;5055460;28;20446;-65
2024/02/16 06:08:47;;;;;;;5.50;2.33;;;11.30;99.90;;;;;;5055373;28;20443;-63
2024/02/16 06:11:15;;;;;;;3.40;2.07;;;11.30;99.90;;;;;;5055402;28;20459;-65
2024/02/16 06:13:43;;;;;;;3.07;2.10;;;11.20;99.90;;;;;;5054920;28;20477;-65
2024/02/16 06:16:10;;;;;;;3.43;2.03;;;11.20;99.90;;;;;;5055246;28;20846;-64
2024/02/16 06:18:37;;;;;;;11.43;2.17;;;11.30;99.90;;;;;;5055044;28;20490;-65
2024/02/16 06:21:04;;;;;;;3.03;2.30;;;11.20;99.90;;;;;;5055148;28;20554;-64
2024/02/16 06:23:31;;;;;;;4.77;2.27;;;11.20;99.90;;;;;;5055334;28;20440;-65
2024/02/16 06:25:57;;;;;;;2.23;1.87;;;11.20;99.90;;;;;;5055342;28;20820;-64
2024/02/16 06:28:24;;;;;;;2.53;2.30;;;11.20;99.90;;;;;;5055081;28;20439;-64
2024/02/16 06:30:52;;;;;;;5.07;2.00;;;11.10;99.90;;;;;;5054602;28;20444;-65
2024/02/16 06:33:19;;;;;;;3.20;2.20;;;11.10;99.90;;;;;;5054855;28;20477;-66
2024/02/16 06:35:48;;;;;;;2.43;2.23;;;11.10;99.90;;;;;;5054228;28;20566;-64
2024/02/16 06:38:14;;;;;;;4.30;2.40;;;11.20;99.90;;;;;;5055266;28;20542;-65
2024/02/16 06:40:41;;;;;;;2.93;1.80;;;11.20;99.90;;;;;;5055658;28;20437;-65
2024/02/16 06:43:09;;;;;;;2.57;1.73;;;11.20;99.90;;;;;;5055517;28;20933;-65
2024/02/16 06:45:36;;;;;;;3.00;2.00;;;11.30;99.90;;;;;;5054651;28;20449;-65
2024/02/16 06:48:04;;;;;;;2.57;1.80;;;11.30;99.90;;;;;;5054656;28;20919;-64
2024/02/16 06:50:31;;;;;;;2.77;1.93;;;11.30;99.90;;;;;;5056890;28;20457;-65
2024/02/16 06:52:59;;;;;;;3.17;2.20;;;11.30;99.90;;;;;;5056652;28;20978;-64
2024/02/16 06:55:26;;;;;;;2.03;1.67;;;11.30;99.90;;;;;;5055840;28;20442;-63
2024/02/16 06:57:52;;;;;;;2.13;1.63;;;11.40;99.90;;;;;;5055074;28;20444;-64
2024/02/16 07:00:21;;;;;;;4.83;2.30;;;11.40;99.90;;;;;;5054633;28;20444;-68
2024/02/16 07:02:48;;;;;;;4.23;2.40;;;11.50;99.90;;;;;;5054426;28;20844;-64
2024/02/16 07:05:17;;;;;;;3.23;2.93;;;11.50;99.90;;;;;;5054662;28;20462;-64
2024/02/16 07:07:44;;;;;;;4.53;2.40;;;11.50;99.90;;;;;;5055137;28;20525;-64
2024/02/16 07:10:13;;;;;;;4.07;2.10;;;11.60;99.90;;;;;;5055286;28;20449;-65
2024/02/16 07:12:40;;;;;;;2.20;2.00;;;11.60;99.90;;;;;;5054743;28;20516;-65
2024/02/16 07:15:08;;;;;;;4.00;1.67;;;11.60;99.90;;;;;;5055013;28;20445;-64
2024/02/16 07:17:36;;;;;;;2.60;2.17;;;11.60;99.90;;;;;;5054417;28;20444;-65
2024/02/16 07:20:04;;;;;;;3.60;2.10;;;11.70;99.90;;;;;;5054434;28;20838;-64
2024/02/16 07:22:32;;;;;;;2.43;2.00;;;11.70;99.90;;;;;;5053876;28;21029;-64
2024/02/16 07:25:00;;;;;;;3.93;2.30;;;11.70;99.90;;;;;;5053931;28;20549;-65
2024/02/16 07:27:27;;;;;;;2.43;1.87;;;11.80;99.90;;;;;;5054244;28;20441;-64
2024/02/16 07:29:55;;;;;;;4.70;2.90;;;11.80;99.90;;;;;;5054226;28;21009;-65
2024/02/16 07:32:21;;;;;;;3.67;1.90;;;11.90;99.90;;;;;;5053835;28;20587;-65
2024/02/16 07:34:48;;;;;;;2.23;1.83;;;11.90;99.90;;;;;;5053522;28;20444;-65
2024/02/16 07:37:15;;;;;;;5.07;2.43;;;11.90;99.90;;;;;;5053875;28;20441;-65
2024/02/16 07:39:43;;;;;;;3.00;2.57;;;12.00;99.90;;;;;;5054146;28;20458;-65
2024/02/16 07:42:12;;;;;;;4.07;2.50;;;12.00;99.90;;;;;;5056394;28;20542;-64
2024/02/16 07:44:39;;;;;;;3.80;2.50;;;12.10;99.90;;;;;;5056858;28;20492;-65
2024/02/16 07:47:06;;;;;;;3.90;2.67;;;12.20;99.90;;;;;;5056676;28;20441;-65
2024/02/16 07:49:33;;;;;;;4.60;2.43;;;12.20;99.90;;;;;;5059343;28;20437;-63
2024/02/16 07:52:00;;;;;;;4.97;2.30;;;12.30;99.90;;;;;;5056775;28;20460;-64
2024/02/16 07:54:26;;;;;;;3.03;2.37;;;12.30;99.90;;;;;;5057943;28;20436;-64
2024/02/16 07:56:54;;;;;;;2.90;2.40;;;12.40;99.90;;;;;;5056930;28;20449;-64
2024/02/16 07:59:23;;;;;;;4.00;2.50;;;12.40;99.90;;;;;;5056064;28;20467;-64
2024/02/16 08:01:50;;;;;;;4.23;2.50;;;12.40;99.90;;;;;;5053709;28;20483;-64
2024/02/16 08:04:16;;;;;;;4.60;2.40;;;12.50;99.90;;;;;;5053682;28;20813;-65
2024/02/16 08:06:43;;;;;;;4.53;2.50;;;12.50;99.90;;;;;;5054459;28;20442;-64
2024/02/16 08:09:10;;;;;;;8.60;2.23;;;12.60;99.90;;;;;;5053772;28;20433;-66
2024/02/16 08:11:37;;;;;;;3.97;2.37;;;12.80;99.90;;;;;;5054342;28;20464;-65
2024/02/16 08:14:05;;;;;;;2.30;1.93;;;13.00;99.90;;;;;;5053892;28;20483;-65
2024/02/16 08:16:32;;;;;;;9.13;2.57;;;13.10;99.90;;;;;;5054795;28;20448;-66
2024/02/16 08:18:59;;;;;;;2.77;2.10;;;13.30;99.90;;;;;;5054893;28;20999;-64
2024/02/16 08:21:26;;;;;;;3.13;2.10;;;13.40;99.90;;;;;;5055659;28;20467;-64
2024/02/16 08:23:52;;;;;;;3.87;1.90;;;13.50;99.90;;;;;;5055654;28;20543;-64
2024/02/16 08:26:19;;;;;;;2.63;2.37;;;13.60;99.90;;;;;;5055596;28;20442;-65
2024/02/16 08:28:46;;;;;;;11.97;2.83;;;13.60;99.90;;;;;;5054532;28;20439;-65
2024/02/16 08:31:17;;;;;;;3.73;2.80;;;13.60;99.90;;;;;;5053830;28;20460;-65
2024/02/16 08:33:45;;;;;;;3.43;2.10;;;13.60;99.90;;;;;;5053665;28;20466;-65
2024/02/16 08:36:11;;;;;;;6.50;2.90;;;13.60;99.90;;;;;;5053198;28;20453;-65
2024/02/16 08:38:38;;;;;;;5.80;2.63;;;13.60;99.90;;;;;;5054037;28;20816;-66
2024/02/16 08:41:05;;;;;;;3.33;2.30;;;13.60;99.90;;;;;;5053356;28;20468;-65
2024/02/16 08:43:32;;;;;;;3.67;2.50;;;13.60;99.90;;;;;;5054264;28;20438;-63
2024/02/16 08:45:59;;;;;;;5.60;2.43;;;13.60;99.90;;;;;;5053226;28;20473;-66
2024/02/16 08:48:27;;;;;;;3.00;2.00;;;13.60;99.90;;;;;;5052858;28;20450;-64
2024/02/16 08:50:53;;;;;;;4.33;2.57;;;13.60;99.90;;;;;;5053332;28;20462;-64
2024/02/16 08:53:20;;;;;;;3.23;2.53;;;13.60;99.90;;;;;;5053246;28;20853;-65
2024/02/16 08:55:47;;;;;;;7.40;1.97;;;13.70;99.90;;;;;;5053007;28;20476;-65
2024/02/16 08:58:14;;;;;;;4.77;1.90;;;13.80;99.90;;;;;;5054647;28;20549;-64
2024/02/16 09:00:40;;;;;;;4.27;2.87;;;13.90;99.90;;;;;;5058156;28;20451;-68
2024/02/16 09:03:08;;;;;;;3.70;2.23;;;13.90;99.90;;;;;;5057476;28;20450;-64
2024/02/16 09:05:36;;;;;;;4.30;2.23;;;14.00;99.90;;;;;;5056988;28;20482;-66
2024/02/16 09:08:04;;;;;;;4.17;2.60;;;14.00;99.90;;;;;;5057076;28;20816;-65
2024/02/16 09:10:31;;;;;;;4.80;2.40;;;14.10;99.90;;;;;;5057699;28;20457;-65
2024/02/16 09:12:58;;;;;;;3.13;2.27;;;14.20;99.90;;;;;;5057932;28;20479;-64
2024/02/16 09:15:24;;;;;;;3.03;2.53;;;14.20;99.90;;;;;;5058015;28;20483;-66
2024/02/16 09:17:51;;;;;;;5.70;2.20;;;14.30;99.90;;;;;;5057513;28;20447;-65
2024/02/16 09:20:22;;;;;;;3.30;2.00;;;14.30;99.90;;;;;;5056500;28;20451;-61
2024/02/16 09:22:50;;;;;;;4.40;2.27;;;14.40;99.90;;;;;;5057479;28;20906;-65
2024/02/16 09:25:16;;;;;;;3.67;2.77;;;14.40;99.90;;;;;;5056671;28;20920;-64
2024/02/16 09:27:44;;;;;;;3.33;2.07;;;14.40;99.90;;;;;;5060096;28;20442;-65
2024/02/16 09:30:12;;;;;;;5.63;2.53;;;14.50;99.90;;;;;;5059282;28;20454;-64
2024/02/16 09:32:40;;;;;;;5.27;2.30;;;14.50;99.90;;;;;;5058865;28;20469;-65
2024/02/16 09:35:07;;;;;;;3.80;2.00;;;14.60;99.90;;;;;;5060309;28;20501;-62
2024/02/16 09:37:35;;;;;;;3.10;2.63;;;14.70;99.90;;;;;;5058494;28;20453;-65
2024/02/16 09:40:04;;;;;;;3.27;1.80;;;14.80;99.90;;;;;;5057092;28;20446;-65
2024/02/16 09:42:31;;;;;;;3.90;1.97;;;14.90;99.90;;;;;;5056950;28;20520;-65
2024/02/16 09:44:58;;;;;;;3.10;2.03;;;15.00;99.90;;;;;;5057623;28;20442;-65
2024/02/16 09:47:28;;;;;;;3.73;1.97;;;15.00;99.90;;;;;;5056654;28;20514;-64
2024/02/16 09:49:55;;;;;;;4.07;1.60;;;15.00;99.90;;;;;;5056331;28;20432;-66
2024/02/16 09:52:23;;;;;;;5.23;1.93;;;15.10;99.90;;;;;;5056362;28;20467;-64
2024/02/16 09:54:49;;;;;;;2.00;1.80;;;15.20;99.90;;;;;;5056540;28;20490;-65
2024/02/16 09:57:19;;;;;;;3.00;2.47;;;15.20;99.90;;;;;;5056681;28;20454;-65
2024/02/16 09:59:46;;;;;;;3.33;2.20;;;15.20;99.90;;;;;;5056231;28;20451;-64
2024/02/16 10:02:12;;;;;;;4.10;2.40;;;15.20;99.90;;;;;;5055910;28;20478;-64
2024/02/16 10:04:39;;;;;;;4.57;2.10;;;15.30;99.90;;;;;;5056102;28;20451;-65
2024/02/16 10:07:06;;;;;;;2.20;2.00;;;15.30;99.90;;;;;;5057033;28;20439;-64
2024/02/16 10:09:33;;;;;;;4.30;1.70;;;15.30;99.90;;;;;;5056118;28;20444;-64
2024/02/16 10:12:00;;;;;;;2.03;1.70;;;15.30;99.90;;;;;;5055654;28;21052;-65
2024/02/16 10:14:31;;;;;;;4.13;2.33;;;15.30;99.90;;;;;;5056233;28;21054;-65
2024/02/16 10:17:02;;;;;;;3.57;2.10;;;15.30;99.90;;;;;;5056003;28;20782;-65
2024/02/16 10:19:36;;;;;;;2.60;2.13;;;15.30;99.90;;;;;;5055897;28;20537;-64
2024/02/16 10:22:09;;;;;;;2.83;1.83;;;15.40;99.90;;;;;;5055623;28;20463;-64
2024/02/16 10:24:38;;;;;;;4.20;2.70;;;15.40;99.90;;;;;;5055614;28;20427;-64
2024/02/16 10:27:05;;;;;;;4.07;2.20;;;15.30;99.90;;;;;;5055599;28;20445;-65
2024/02/16 10:29:34;;;;;;;3.10;2.00;;;15.30;99.90;;;;;;5055701;28;20446;-65
2024/02/16 10:32:01;;;;;;;2.23;2.00;;;15.30;99.90;;;;;;5056795;28;20467;-64
2024/02/16 10:34:30;;;;;;;2.30;2.07;;;15.30;99.90;;;;;;5058189;28;20478;-65
2024/02/16 10:37:00;;;;;;;2.30;2.10;;;15.30;99.90;;;;;;5056403;28;20793;-65
2024/02/16 10:39:27;;;;;;;3.33;1.60;;;15.30;99.90;;;;;;5055776;28;20942;-63
2024/02/16 10:41:55;;;;;;;2.50;1.90;;;15.30;99.90;;;;;;5055835;28;20467;-64
2024/02/16 10:44:22;;;;;;;2.87;2.13;;;15.30;99.90;;;;;;5056108;28;20452;-64
2024/02/16 10:46:51;;;;;;;2.00;1.70;;;15.40;99.90;;;;;;5055314;28;20450;-64
2024/02/16 10:49:19;;;;;;;2.23;1.73;;;15.40;99.90;;;;;;5054712;28;21006;-64
2024/02/16 10:51:49;;;;;;;6.20;1.90;;;15.40;99.90;;;;;;5054545;28;20960;-65
2024/02/16 10:54:20;;;;;;;4.57;2.33;;;15.40;99.90;;;;;;5055280;28;20465;-65
2024/02/16 10:56:47;;;;;;;2.50;1.80;;;15.40;99.90;;;;;;5054630;28;20478;-64
2024/02/16 10:59:13;;;;;;;2.97;2.00;;;15.40;99.90;;;;;;5054810;28;20937;-65
2024/02/16 11:01:41;;;;;;;5.83;1.93;;;15.40;99.90;;;;;;5054353;28;20485;-65
2024/02/16 11:04:15;;;;;;;4.70;2.10;;;15.40;99.90;;;;;;5055227;28;20435;-64
2024/02/16 11:06:49;;;;;;;3.03;2.00;;;15.50;99.90;;;;;;5054522;28;20911;-65
2024/02/16 11:09:27;;;;;;;3.57;2.33;;;15.50;99.90;;;;;;5056122;28;20443;-65
2024/02/16 11:11:54;;;;;;;2.30;2.10;;;15.50;99.90;;;;;;5056838;28;20475;-64
2024/02/16 11:14:23;;;;;;;3.47;2.50;;;15.50;99.90;;;;;;5056242;28;20865;-64
2024/02/16 11:16:50;;;;;;;4.40;2.53;;;15.50;99.90;;;;;;5055146;28;20447;-63
2024/02/16 11:19:19;;;;;;;2.77;2.07;;;15.60;99.90;;;;;;5055624;28;20454;-64
2024/02/16 11:21:57;;;;;;;3.40;2.50;;;15.60;99.90;;;;;;5055862;28;20471;-65
2024/02/16 11:24:31;;;;;;;3.33;2.60;;;15.50;99.90;;;;;;5056826;28;20435;-64
2024/02/16 11:26:57;;;;;;;6.87;2.20;;;15.50;99.90;;;;;;5057358;28;20858;-65
2024/02/16 11:29:26;;;;;;;5.23;2.50;;;15.50;99.90;;;;;;5058431;28;20447;-65
2024/02/16 11:31:53;;;;;;;3.17;1.77;;;15.40;99.90;;;;;;5057596;28;20512;-65
2024/02/16 11:34:25;;;;;;;3.53;1.97;;;15.20;99.90;;;;;;5056681;28;20493;-65
2024/02/16 11:36:54;;;;;;;2.70;1.93;;;15.10;99.90;;;;;;5055628;28;20520;-64
2024/02/16 11:39:21;;;;;;;3.00;2.03;;;15.10;99.90;;;;;;5054391;28;20500;-64
2024/02/16 11:41:48;;;;;;;3.53;2.30;;;15.20;99.90;;;;;;5054382;28;20464;-64
2024/02/16 11:44:16;;;;;;;3.77;2.20;;;15.30;99.90;;;;;;5053387;28;20439;-64
2024/02/16 11:46:43;;;;;;;7.23;1.77;;;15.50;99.90;;;;;;5053529;28;20447;-65
2024/02/16 11:49:10;;;;;;;3.23;2.20;;;15.70;99.90;;;;;;5053054;28;20451;-65
2024/02/16 11:51:39;;;;;;;3.30;2.20;;;15.80;99.90;;;;;;5052979;28;21050;-64
2024/02/16 11:54:07;;;;;;;4.70;2.00;;;15.90;99.90;;;;;;5053128;28;20484;-65
2024/02/16 11:56:33;;;;;;;5.23;2.40;;;16.10;99.90;;;;;;5053790;28;20463;-64
2024/02/16 11:59:01;;;;;;;2.53;1.80;;;16.30;99.90;;;;;;5052871;28;20451;-65
2024/02/16 12:01:28;;;;;;;5.27;2.50;;;16.40;99.90;;;;;;5053100;28;20475;-66
2024/02/16 12:03:54;;;;;;;3.00;2.07;;;16.50;99.90;;;;;;5053447;28;20554;-64
2024/02/16 12:06:22;;;;;;;5.47;2.30;;;16.60;99.70;;;;;;5054025;28;20452;-65
2024/02/16 12:08:52;;;;;;;4.53;2.30;;;16.70;99.30;;;;;;5052916;28;20866;-64
2024/02/16 12:11:18;;;;;;;3.03;1.77;;;16.80;98.50;;;;;;5052606;28;20903;-66
2024/02/16 12:13:46;;;;;;;4.43;2.10;;;16.80;98.10;;;;;;5052554;28;20490;-67
2024/02/16 12:16:12;;;;;;;10.10;2.23;;;16.80;97.60;;;;;;5053720;28;20929;-65
2024/02/16 12:18:39;;;;;;;3.80;2.80;;;16.80;97.40;;;;;;5054652;28;20452;-65
2024/02/16 12:21:07;;;;;;;3.60;1.90;;;16.80;97.20;;;;;;5054918;28;20462;-64
2024/02/16 12:23:34;;;;;;;5.53;2.90;;;16.80;97.10;;;;;;5053856;28;20935;-64
2024/02/16 12:26:04;;;;;;;2.97;2.33;;;16.80;96.90;;;;;;5053110;28;20813;-64
2024/02/16 12:28:31;;;;;;;5.27;2.40;;;16.90;97.00;;;;;;5053399;28;20864;-65
2024/02/16 12:30:59;;;;;;;4.20;2.60;;;16.90;96.80;;;;;;5053063;28;20974;-64
2024/02/16 12:33:26;;;;;;;2.57;2.17;;;17.00;96.80;;;;;;5054417;28;20820;-64
2024/02/16 12:35:54;;;;;;;4.67;2.37;;;17.10;96.80;;;;;;5058198;28;20550;-64
2024/02/16 12:38:20;;;;;;;3.50;2.43;;;17.10;96.30;;;;;;5057937;28;20848;-63
2024/02/16 12:40:47;;;;;;;4.73;2.53;;;17.20;96.20;;;;;;5057614;28;20463;-64
2024/02/16 12:43:15;;;;;;;4.07;2.77;;;17.20;96.20;;;;;;5057392;28;20465;-64
2024/02/16 12:45:43;;;;;;;3.20;2.03;;;17.30;96.10;;;;;;5059464;28;20443;-64
2024/02/16 12:48:10;;;;;;;4.20;2.30;;;17.30;95.90;;;;;;5058840;28;20815;-65